Time;durP1;ratioP1;P1;durP2;ratioP2;P2;SDS_P1;SDS_P2;PMS_P1;PMS_P2;Temp;Humidity;BMP_temperature;BMP_pressure;BME280_temperature;BME280_humidity;BME280_pressure;Samples;Min_cycle;Max_cycle;Signal;HPM_P1;HPM_P2
2023/06/13 00:02:28;;;;;;;6.83;6.20;;;23.40;43.30;;;;;;5055183;28;20943;-56
2023/06/13 00:04:55;;;;;;;6.57;5.97;;;23.30;43.50;;;;;;5055534;28;20473;-56
2023/06/13 00:07:22;;;;;;;6.10;5.60;;;23.20;43.70;;;;;;5055087;28;20982;-56
2023/06/13 00:09:49;;;;;;;6.30;5.80;;;23.10;44.00;;;;;;5055239;28;20471;-56
2023/06/13 00:12:19;;;;;;;7.83;6.20;;;23.10;44.20;;;;;;5054879;28;20458;-56
2023/06/13 00:14:50;;;;;;;6.50;5.90;;;23.00;44.50;;;;;;5054863;28;20900;-56
2023/06/13 00:17:17;;;;;;;11.23;6.33;;;23.00;44.60;;;;;;5053920;28;20469;-56
2023/06/13 00:19:45;;;;;;;7.07;5.90;;;23.00;44.70;;;;;;5054965;28;20532;-56
2023/06/13 00:22:14;;;;;;;6.60;6.00;;;23.00;44.70;;;;;;5055034;28;20441;-56
2023/06/13 00:24:40;;;;;;;11.83;5.97;;;23.00;44.70;;;;;;5054940;28;20442;-56
2023/06/13 00:27:07;;;;;;;6.63;6.03;;;23.00;44.80;;;;;;5054784;28;20501;-56
2023/06/13 00:29:34;;;;;;;7.40;6.13;;;23.00;45.30;;;;;;5054772;28;20951;-56
2023/06/13 00:32:01;;;;;;;6.67;5.97;;;22.90;44.80;;;;;;5054652;28;20981;-56
2023/06/13 00:34:28;;;;;;;7.10;6.40;;;22.90;44.90;;;;;;5054750;28;20485;-56
2023/06/13 00:36:56;;;;;;;8.37;6.63;;;22.80;45.00;;;;;;5054553;28;20461;-56
2023/06/13 00:39:23;;;;;;;9.10;6.80;;;22.70;45.00;;;;;;5054661;28;20446;-56
2023/06/13 00:41:49;;;;;;;7.53;6.27;;;22.70;45.10;;;;;;5054527;28;20519;-56
2023/06/13 00:44:16;;;;;;;7.17;6.13;;;22.60;45.40;;;;;;5054505;28;20536;-56
2023/06/13 00:46:44;;;;;;;6.70;6.10;;;22.40;45.60;;;;;;5054213;28;20469;-56
2023/06/13 00:49:12;;;;;;;8.57;6.73;;;22.40;45.80;;;;;;5054604;28;20450;-56
2023/06/13 00:51:41;;;;;;;7.63;6.40;;;22.30;46.10;;;;;;5053976;28;20829;-56
2023/06/13 00:54:11;;;;;;;6.67;6.13;;;22.20;46.20;;;;;;5054294;28;20539;-56
2023/06/13 00:56:40;;;;;;;6.57;6.07;;;22.20;46.40;;;;;;5054339;28;20501;-56
2023/06/13 00:59:08;;;;;;;6.70;6.20;;;22.10;46.60;;;;;;5054479;28;20584;-56
2023/06/13 01:01:36;;;;;;;7.30;6.60;;;22.10;46.90;;;;;;5054259;28;20450;-57
2023/06/13 01:04:04;;;;;;;7.93;6.30;;;22.00;47.10;;;;;;5054132;28;20441;-57
2023/06/13 01:06:33;;;;;;;8.10;5.60;;;22.00;47.30;;;;;;5054104;28;20465;-57
2023/06/13 01:09:04;;;;;;;10.03;6.57;;;21.90;47.40;;;;;;5053960;28;20449;-57
2023/06/13 01:11:39;;;;;;;6.87;6.10;;;21.80;48.10;;;;;;5054109;28;20465;-57
2023/06/13 01:14:13;;;;;;;6.70;6.10;;;21.70;47.60;;;;;;5054116;28;20515;-57
2023/06/13 01:16:47;;;;;;;6.40;5.90;;;21.60;47.70;;;;;;5053937;28;20481;-57
2023/06/13 01:19:24;;;;;;;7.07;6.50;;;21.50;47.90;;;;;;5054065;28;20433;-57
2023/06/13 01:21:53;;;;;;;6.10;5.60;;;21.40;48.00;;;;;;5053877;28;20460;-57
2023/06/13 01:24:28;;;;;;;6.00;5.50;;;21.40;48.30;;;;;;5054578;28;20780;-57
2023/06/13 01:26:59;;;;;;;5.90;5.50;;;21.30;48.50;;;;;;5053425;28;20514;-57
2023/06/13 01:29:26;;;;;;;6.77;6.23;;;21.20;48.60;;;;;;5053327;28;20515;-57
2023/06/13 01:31:56;;;;;;;6.00;5.60;;;21.10;48.70;;;;;;5053732;28;20457;-57
2023/06/13 01:34:25;;;;;;;7.27;6.67;;;21.00;48.80;;;;;;5053311;28;20994;-57
2023/06/13 01:36:52;;;;;;;6.90;6.30;;;20.90;48.80;;;;;;5054538;28;20473;-57
2023/06/13 01:39:19;;;;;;;6.80;6.30;;;20.90;49.00;;;;;;5074432;28;20448;-57
2023/06/13 01:41:45;;;;;;;8.20;6.43;;;20.90;49.40;;;;;;5073552;28;20453;-57
2023/06/13 01:44:20;;;;;;;6.50;6.00;;;20.80;49.40;;;;;;5073150;28;20947;-57
2023/06/13 01:46:57;;;;;;;7.63;6.63;;;20.70;49.60;;;;;;5073442;28;20475;-57
2023/06/13 01:49:32;;;;;;;6.47;5.97;;;20.70;49.80;;;;;;5073480;28;20432;-57
2023/06/13 01:52:08;;;;;;;6.00;5.50;;;20.70;50.00;;;;;;5073441;28;20436;-57
2023/06/13 01:54:40;;;;;;;6.57;5.87;;;20.70;50.30;;;;;;5073070;28;20460;-57
2023/06/13 01:57:10;;;;;;;8.07;6.20;;;20.60;50.50;;;;;;5073171;28;20465;-57
2023/06/13 01:59:41;;;;;;;6.20;5.70;;;20.60;50.60;;;;;;5073139;28;20968;-57
2023/06/13 02:02:08;;;;;;;6.77;6.17;;;20.60;50.80;;;;;;5073485;28;20437;-57
2023/06/13 02:04:40;;;;;;;6.60;6.00;;;20.60;51.00;;;;;;5073497;28;20485;-57
2023/06/13 02:07:08;;;;;;;7.20;6.20;;;20.50;51.10;;;;;;5073633;28;20509;-57
2023/06/13 02:09:35;;;;;;;6.60;6.00;;;20.40;51.20;;;;;;5073356;28;20440;-57
2023/06/13 02:12:02;;;;;;;5.80;5.30;;;20.40;51.30;;;;;;5073519;28;20456;-57
2023/06/13 02:14:29;;;;;;;7.20;6.60;;;20.30;51.40;;;;;;5073206;28;20563;-57
2023/06/13 02:16:59;;;;;;;6.70;5.60;;;20.20;51.50;;;;;;5073154;28;20468;-57
2023/06/13 02:19:26;;;;;;;8.17;5.40;;;20.10;51.70;;;;;;5073116;28;20449;-57
2023/06/13 02:21:53;;;;;;;6.13;5.63;;;20.10;52.00;;;;;;5073246;28;20532;-57
2023/06/13 02:24:20;;;;;;;6.27;5.77;;;20.00;52.10;;;;;;5073140;28;20453;-57
2023/06/13 02:26:47;;;;;;;6.40;5.80;;;20.00;52.40;;;;;;5073312;28;20530;-57
2023/06/13 02:29:14;;;;;;;6.80;6.20;;;20.00;52.50;;;;;;5073285;28;20471;-57
2023/06/13 02:31:42;;;;;;;7.70;6.20;;;19.90;52.50;;;;;;5073596;28;20497;-57
2023/06/13 02:34:10;;;;;;;5.80;5.30;;;19.80;52.50;;;;;;5075965;28;20449;-57
2023/06/13 02:36:37;;;;;;;6.30;5.70;;;19.80;52.70;;;;;;5075309;28;20461;-58
2023/06/13 02:39:04;;;;;;;7.83;6.53;;;19.70;52.50;;;;;;5074713;28;20476;-57
2023/06/13 02:41:31;;;;;;;6.63;6.07;;;19.70;52.60;;;;;;5076084;28;20448;-57
2023/06/13 02:43:58;;;;;;;6.50;6.00;;;19.60;52.70;;;;;;5076541;28;20961;-57
2023/06/13 02:46:24;;;;;;;6.43;5.83;;;19.60;52.80;;;;;;5076956;28;20452;-57
2023/06/13 02:48:51;;;;;;;6.50;5.73;;;19.50;52.80;;;;;;5076779;28;20473;-57
2023/06/13 02:51:19;;;;;;;7.90;7.10;;;19.50;52.90;;;;;;5076676;28;20444;-57
2023/06/13 02:53:46;;;;;;;7.03;6.43;;;19.50;53.10;;;;;;5076783;28;20490;-57
2023/06/13 02:56:12;;;;;;;6.67;6.07;;;19.40;53.10;;;;;;5076459;28;20484;-57
2023/06/13 02:58:39;;;;;;;7.17;6.10;;;19.40;53.30;;;;;;5076610;28;20451;-57
2023/06/13 03:01:06;;;;;;;7.57;6.83;;;19.30;53.30;;;;;;5076542;28;20451;-57
2023/06/13 03:03:34;;;;;;;6.60;6.10;;;19.30;53.50;;;;;;5076207;28;20449;-57
2023/06/13 03:06:01;;;;;;;10.53;6.10;;;19.30;53.60;;;;;;5076025;28;20461;-57
2023/06/13 03:08:30;;;;;;;8.70;6.70;;;19.20;53.60;;;;;;5076334;28;20498;-56
2023/06/13 03:10:57;;;;;;;8.20;6.00;;;19.20;53.80;;;;;;5076161;28;20445;-56
2023/06/13 03:13:24;;;;;;;7.80;5.97;;;19.20;53.90;;;;;;5076331;28;20436;-56
2023/06/13 03:15:51;;;;;;;6.03;5.53;;;19.20;54.00;;;;;;5076104;28;20480;-56
2023/06/13 03:18:18;;;;;;;6.53;5.93;;;19.10;54.10;;;;;;5076218;28;20455;-56
2023/06/13 03:20:47;;;;;;;7.17;6.40;;;19.10;54.20;;;;;;5076193;28;20444;-56
2023/06/13 03:23:15;;;;;;;6.70;6.20;;;19.00;54.20;;;;;;5076163;28;20506;-56
2023/06/13 03:25:44;;;;;;;6.70;6.20;;;19.00;54.40;;;;;;5075952;28;20444;-56
2023/06/13 03:28:11;;;;;;;7.10;6.40;;;19.00;54.50;;;;;;5076007;28;20476;-56
2023/06/13 03:30:38;;;;;;;7.67;6.77;;;19.00;54.70;;;;;;5075961;28;20452;-56
2023/06/13 03:33:05;;;;;;;9.47;5.70;;;19.00;54.90;;;;;;5075950;28;20455;-56
2023/06/13 03:35:34;;;;;;;6.90;6.20;;;18.90;54.80;;;;;;5076073;28;20480;-56
2023/06/13 03:38:01;;;;;;;5.83;5.20;;;19.00;55.00;;;;;;5075562;28;20487;-56
2023/06/13 03:40:28;;;;;;;5.90;5.30;;;19.00;55.10;;;;;;5075785;28;20449;-56
2023/06/13 03:42:56;;;;;;;7.73;5.83;;;19.00;55.20;;;;;;5075681;28;20445;-56
2023/06/13 03:45:24;;;;;;;6.27;5.70;;;19.00;55.20;;;;;;5075693;28;20444;-56
2023/06/13 03:47:51;;;;;;;5.27;4.77;;;19.00;55.20;;;;;;5075654;28;20507;-56
2023/06/13 03:50:17;;;;;;;6.30;5.77;;;18.90;55.00;;;;;;5075587;28;20498;-56
2023/06/13 03:52:44;;;;;;;6.13;5.57;;;18.80;55.00;;;;;;5075846;28;20452;-56
2023/06/13 03:55:11;;;;;;;6.00;5.30;;;18.80;54.80;;;;;;5075457;28;20483;-56
2023/06/13 03:57:38;;;;;;;6.20;5.70;;;18.70;54.90;;;;;;5075479;28;20465;-56
2023/06/13 04:00:09;;;;;;;5.57;5.17;;;18.70;55.30;;;;;;5075108;28;20823;-56
2023/06/13 04:02:36;;;;;;;6.43;5.93;;;18.70;55.50;;;;;;5075490;28;20441;-56
2023/06/13 04:05:03;;;;;;;5.67;5.17;;;18.70;55.50;;;;;;5075322;28;20444;-56
2023/06/13 04:07:33;;;;;;;6.17;5.30;;;18.60;55.60;;;;;;5075317;28;20521;-56
2023/06/13 04:10:00;;;;;;;7.03;5.20;;;18.60;55.80;;;;;;5075258;28;20525;-56
2023/06/13 04:12:28;;;;;;;6.40;5.80;;;18.60;56.00;;;;;;5074968;28;20513;-56
2023/06/13 04:14:55;;;;;;;6.10;5.60;;;18.60;56.20;;;;;;5075041;28;20497;-56
2023/06/13 04:17:23;;;;;;;5.73;5.33;;;18.60;56.40;;;;;;5075311;28;20468;-56
2023/06/13 04:19:50;;;;;;;5.90;5.30;;;18.60;56.70;;;;;;5074978;28;20808;-56
2023/06/13 04:22:18;;;;;;;8.40;5.57;;;18.60;56.90;;;;;;5074670;28;20975;-56
2023/06/13 04:24:45;;;;;;;7.63;5.90;;;18.70;57.10;;;;;;5074939;28;20445;-57
2023/06/13 04:27:13;;;;;;;6.20;5.70;;;18.70;57.20;;;;;;5074909;28;20476;-56
2023/06/13 04:29:43;;;;;;;6.13;5.50;;;18.80;57.30;;;;;;5074932;28;20481;-56
2023/06/13 04:32:13;;;;;;;7.80;5.23;;;18.80;57.30;;;;;;5075026;28;20445;-56
2023/06/13 04:34:44;;;;;;;5.40;4.90;;;18.80;57.30;;;;;;5074816;28;20429;-56
2023/06/13 04:37:11;;;;;;;5.30;4.90;;;18.70;57.40;;;;;;5069647;28;20485;-56
2023/06/13 04:39:38;;;;;;;6.43;5.53;;;18.70;57.40;;;;;;5054811;28;20567;-56
2023/06/13 04:42:05;;;;;;;5.50;5.10;;;18.70;57.60;;;;;;5054568;28;20540;-56
2023/06/13 04:44:33;;;;;;;5.90;5.40;;;18.70;58.00;;;;;;5054622;28;20441;-56
2023/06/13 04:47:01;;;;;;;7.20;4.97;;;18.70;58.00;;;;;;5054014;28;20474;-56
2023/06/13 04:49:28;;;;;;;7.17;6.10;;;18.80;58.00;;;;;;5054291;28;20457;-57
2023/06/13 04:51:57;;;;;;;7.60;5.90;;;18.90;58.60;;;;;;5054409;28;20441;-56
2023/06/13 04:54:25;;;;;;;7.20;6.53;;;19.00;58.60;;;;;;5054790;28;20450;-56
2023/06/13 04:56:52;;;;;;;8.23;5.50;;;19.00;58.50;;;;;;5054216;28;20520;-56
2023/06/13 04:59:20;;;;;;;6.17;5.57;;;19.10;58.50;;;;;;5054178;28;20453;-56
2023/06/13 05:01:47;;;;;;;8.57;6.10;;;19.20;58.50;;;;;;5054269;28;20449;-56
2023/06/13 05:04:14;;;;;;;6.43;5.60;;;19.30;58.60;;;;;;5054006;28;20499;-56
2023/06/13 05:06:41;;;;;;;9.30;6.47;;;19.30;58.60;;;;;;5053995;28;20470;-56
2023/06/13 05:09:10;;;;;;;9.83;5.97;;;19.40;59.00;;;;;;5053851;28;20998;-56
2023/06/13 05:11:36;;;;;;;6.10;5.60;;;19.40;59.10;;;;;;5053965;28;20460;-56
2023/06/13 05:14:03;;;;;;;7.97;5.90;;;19.50;59.20;;;;;;5053930;28;20442;-56
2023/06/13 05:16:30;;;;;;;7.73;5.70;;;19.50;59.40;;;;;;5053469;28;21034;-56
2023/06/13 05:19:00;;;;;;;6.40;5.40;;;19.60;59.40;;;;;;5054037;28;20500;-56
2023/06/13 05:21:27;;;;;;;5.47;5.07;;;19.70;59.60;;;;;;5053976;28;20449;-56
2023/06/13 05:23:53;;;;;;;6.73;5.87;;;19.80;59.90;;;;;;5053829;28;20446;-56
2023/06/13 05:26:21;;;;;;;9.50;5.63;;;19.90;60.00;;;;;;5053674;28;20465;-56
2023/06/13 05:28:48;;;;;;;6.03;5.50;;;20.00;59.60;;;;;;5053623;28;20445;-56
2023/06/13 05:31:15;;;;;;;6.30;5.53;;;20.10;59.30;;;;;;5053407;28;20822;-56
2023/06/13 05:33:42;;;;;;;6.10;5.60;;;20.20;59.50;;;;;;5053355;28;20456;-56
2023/06/13 05:36:08;;;;;;;8.23;5.53;;;20.30;59.20;;;;;;5053748;28;20486;-57
2023/06/13 05:38:36;;;;;;;7.30;5.57;;;20.40;58.70;;;;;;5053931;28;20452;-56
2023/06/13 05:41:03;;;;;;;6.50;5.87;;;20.50;58.40;;;;;;5053841;28;20499;-57
2023/06/13 05:43:31;;;;;;;5.80;5.20;;;20.60;57.50;;;;;;5053450;28;20818;-56
2023/06/13 05:45:57;;;;;;;5.73;5.27;;;20.70;56.90;;;;;;5053070;28;20473;-56
2023/06/13 05:48:24;;;;;;;6.00;5.50;;;20.80;56.40;;;;;;5053211;28;20947;-56
2023/06/13 05:50:51;;;;;;;6.77;4.77;;;20.90;55.60;;;;;;5053298;28;20456;-56
2023/06/13 05:53:18;;;;;;;10.13;5.40;;;21.00;54.80;;;;;;5053487;28;20452;-56
2023/06/13 05:55:44;;;;;;;5.83;5.30;;;21.20;54.20;;;;;;5054065;28;20485;-56
2023/06/13 05:58:11;;;;;;;6.40;5.20;;;21.30;53.70;;;;;;5053478;28;20504;-56
2023/06/13 06:00:40;;;;;;;9.57;6.03;;;21.40;53.40;;;;;;5053176;28;20449;-56
2023/06/13 06:03:07;;;;;;;6.97;6.37;;;21.50;52.60;;;;;;5053330;28;20445;-56
2023/06/13 06:05:34;;;;;;;5.60;5.10;;;21.60;51.50;;;;;;5053159;28;20442;-56
2023/06/13 06:08:01;;;;;;;9.57;6.07;;;21.80;51.20;;;;;;5053133;28;20469;-56
2023/06/13 06:10:27;;;;;;;7.80;5.37;;;21.90;51.00;;;;;;5053256;28;20536;-56
2023/06/13 06:12:54;;;;;;;7.30;5.40;;;22.00;50.50;;;;;;5052920;28;20465;-56
2023/06/13 06:15:21;;;;;;;7.40;5.33;;;22.10;50.40;;;;;;5055710;28;20448;-56
2023/06/13 06:17:50;;;;;;;7.53;5.20;;;22.30;50.50;;;;;;5057302;28;20469;-56
2023/06/13 06:20:17;;;;;;;6.67;5.70;;;22.40;50.20;;;;;;5057196;28;20553;-56
2023/06/13 06:22:44;;;;;;;7.60;5.90;;;22.50;49.60;;;;;;5057012;28;20450;-56
2023/06/13 06:25:12;;;;;;;9.63;5.40;;;22.70;49.50;;;;;;5057205;28;20449;-56
2023/06/13 06:27:39;;;;;;;6.27;5.20;;;22.80;48.70;;;;;;5057096;28;20560;-56
2023/06/13 06:30:07;;;;;;;5.53;5.13;;;22.90;48.10;;;;;;5057096;28;20811;-56
2023/06/13 06:32:34;;;;;;;6.60;4.90;;;23.00;47.90;;;;;;5057074;28;20472;-56
2023/06/13 06:35:03;;;;;;;7.60;5.03;;;23.20;47.70;;;;;;5056967;28;20982;-56
2023/06/13 06:37:32;;;;;;;6.10;5.23;;;23.30;47.60;;;;;;5056778;28;20500;-56
2023/06/13 06:39:58;;;;;;;7.17;5.80;;;23.40;47.30;;;;;;5056902;28;20557;-56
2023/06/13 06:42:25;;;;;;;5.37;4.87;;;23.50;47.00;;;;;;5056902;28;20453;-56
2023/06/13 06:44:52;;;;;;;7.97;5.67;;;23.60;46.70;;;;;;5056531;28;20855;-56
2023/06/13 06:47:19;;;;;;;8.80;5.10;;;23.80;46.50;;;;;;5056709;28;20465;-56
2023/06/13 06:49:46;;;;;;;5.80;4.80;;;23.90;46.00;;;;;;5056609;28;20449;-56
2023/06/13 06:52:14;;;;;;;7.37;4.97;;;24.10;45.90;;;;;;5056725;28;20441;-56
2023/06/13 06:54:41;;;;;;;8.60;4.93;;;24.30;45.80;;;;;;5056360;28;20452;-56
2023/06/13 06:57:07;;;;;;;5.80;5.30;;;24.40;45.70;;;;;;5056517;28;20504;-56
2023/06/13 06:59:34;;;;;;;7.27;4.83;;;24.60;45.10;;;;;;5056451;28;20464;-56
2023/06/13 07:02:01;;;;;;;5.70;5.10;;;24.70;44.30;;;;;;5056818;28;20445;-56
2023/06/13 07:04:27;;;;;;;6.23;4.93;;;24.80;43.80;;;;;;5056485;28;20450;-57
2023/06/13 07:06:54;;;;;;;6.30;5.00;;;25.00;43.70;;;;;;5056283;28;20488;-57
2023/06/13 07:09:22;;;;;;;7.13;4.90;;;25.20;43.50;;;;;;5056372;28;20456;-57
2023/06/13 07:11:50;;;;;;;5.80;4.63;;;25.30;43.00;;;;;;5056196;28;20471;-56
2023/06/13 07:14:18;;;;;;;7.30;4.87;;;25.50;42.50;;;;;;5056064;28;20857;-56
2023/06/13 07:16:45;;;;;;;5.20;4.60;;;25.60;41.90;;;;;;5056069;28;20515;-56
2023/06/13 07:19:11;;;;;;;6.87;4.80;;;25.80;41.80;;;;;;5057014;28;20445;-57
2023/06/13 07:21:39;;;;;;;7.60;5.23;;;26.00;41.60;;;;;;5056142;28;20457;-57
2023/06/13 07:24:06;;;;;;;5.23;4.77;;;26.10;40.60;;;;;;5056056;28;20437;-57
2023/06/13 07:26:34;;;;;;;4.60;4.20;;;26.30;40.30;;;;;;5055321;28;20472;-57
2023/06/13 07:29:01;;;;;;;5.73;5.23;;;26.40;39.90;;;;;;5056011;28;20445;-57
2023/06/13 07:31:27;;;;;;;7.00;4.60;;;26.60;40.30;;;;;;5056127;28;20452;-57
2023/06/13 07:33:54;;;;;;;6.77;4.80;;;26.80;39.80;;;;;;5055964;28;20465;-57
2023/06/13 07:36:21;;;;;;;7.20;4.80;;;27.00;39.30;;;;;;5055729;28;20496;-57
2023/06/13 07:38:48;;;;;;;5.50;4.73;;;27.10;37.80;;;;;;5055665;28;20488;-57
2023/06/13 07:41:15;;;;;;;8.97;4.70;;;27.30;37.30;;;;;;5056297;28;20446;-57
2023/06/13 07:43:43;;;;;;;5.23;4.73;;;27.40;37.20;;;;;;5055442;28;20868;-57
2023/06/13 07:46:10;;;;;;;5.13;4.70;;;27.50;36.70;;;;;;5055570;28;20569;-57
2023/06/13 07:48:36;;;;;;;5.00;4.43;;;27.60;36.50;;;;;;5055823;28;20446;-57
2023/06/13 07:51:05;;;;;;;4.40;4.00;;;27.80;34.00;;;;;;5055167;28;20974;-57
2023/06/13 07:53:31;;;;;;;5.53;4.60;;;27.90;34.10;;;;;;5055896;28;20453;-57
2023/06/13 07:55:58;;;;;;;4.97;4.57;;;28.10;34.90;;;;;;5055770;28;20480;-57
2023/06/13 07:58:25;;;;;;;5.03;4.53;;;28.30;34.90;;;;;;5055518;28;20449;-57
2023/06/13 08:00:53;;;;;;;5.73;4.13;;;28.50;34.90;;;;;;5055307;28;20445;-57
2023/06/13 08:03:20;;;;;;;4.50;4.20;;;28.70;34.20;;;;;;5055446;28;20457;-57
2023/06/13 08:05:46;;;;;;;5.67;4.40;;;28.90;33.80;;;;;;5055304;28;20455;-57
2023/06/13 08:08:13;;;;;;;6.13;4.40;;;29.00;33.00;;;;;;5055258;28;20438;-57
2023/06/13 08:10:40;;;;;;;5.47;5.03;;;29.20;33.10;;;;;;5055208;28;20445;-57
2023/06/13 08:13:06;;;;;;;10.03;4.57;;;29.30;32.80;;;;;;5055056;28;20794;-57
2023/06/13 08:15:33;;;;;;;6.30;4.60;;;29.50;32.60;;;;;;5055045;28;20450;-57
2023/06/13 08:18:01;;;;;;;6.37;5.50;;;29.70;31.90;;;;;;5054964;28;20492;-57
2023/06/13 08:20:28;;;;;;;5.93;4.50;;;29.90;31.30;;;;;;5054958;28;20453;-57
2023/06/13 08:22:56;;;;;;;6.83;4.77;;;29.90;29.90;;;;;;5055508;28;20446;-57
2023/06/13 08:25:23;;;;;;;4.77;4.27;;;30.10;30.60;;;;;;5054638;28;20996;-57
2023/06/13 08:27:49;;;;;;;6.40;5.10;;;30.20;31.20;;;;;;5054844;28;20470;-57
2023/06/13 08:30:17;;;;;;;5.50;4.33;;;30.30;30.80;;;;;;5054893;28;20450;-57
2023/06/13 08:32:46;;;;;;;7.43;4.60;;;30.50;30.30;;;;;;5055487;28;20454;-57
2023/06/13 08:35:14;;;;;;;4.70;4.30;;;30.60;28.70;;;;;;5054770;28;20445;-57
2023/06/13 08:37:41;;;;;;;5.07;4.57;;;30.70;29.10;;;;;;5053516;28;20516;-57
2023/06/13 08:40:10;;;;;;;4.77;4.37;;;30.90;29.40;;;;;;5054629;28;20445;-57
2023/06/13 08:42:37;;;;;;;5.33;4.83;;;31.00;29.00;;;;;;5054502;28;20450;-57
2023/06/13 08:45:05;;;;;;;5.00;4.60;;;31.20;29.30;;;;;;5054676;28;20453;-57
2023/06/13 08:47:32;;;;;;;4.20;3.80;;;31.40;29.10;;;;;;5054907;28;20492;-57
2023/06/13 08:50:00;;;;;;;5.70;5.27;;;31.60;28.80;;;;;;5054635;28;20484;-56
2023/06/13 08:52:30;;;;;;;5.93;5.10;;;31.70;28.80;;;;;;5054697;28;20818;-56
2023/06/13 08:55:00;;;;;;;6.87;4.77;;;32.00;28.70;;;;;;5054648;28;20425;-57
2023/06/13 08:57:31;;;;;;;4.73;4.30;;;32.10;28.00;;;;;;5054636;28;20530;-57
2023/06/13 08:59:58;;;;;;;5.20;4.67;;;32.30;27.90;;;;;;5054355;28;20434;-57
2023/06/13 09:02:26;;;;;;;6.60;5.03;;;32.50;27.90;;;;;;5054239;28;20453;-57
2023/06/13 09:04:52;;;;;;;5.13;4.83;;;32.60;27.30;;;;;;5053962;28;20830;-57
2023/06/13 09:07:21;;;;;;;6.20;4.43;;;32.70;27.00;;;;;;5054111;28;20472;-57
2023/06/13 09:09:53;;;;;;;5.33;4.97;;;32.90;26.90;;;;;;5053839;28;20506;-57
2023/06/13 09:12:21;;;;;;;9.23;4.80;;;33.10;27.30;;;;;;5053887;28;20834;-57
2023/06/13 09:14:48;;;;;;;6.30;4.80;;;33.30;27.50;;;;;;5054129;28;20481;-57
2023/06/13 09:17:15;;;;;;;5.33;4.87;;;33.40;26.40;;;;;;5053835;28;20491;-57
2023/06/13 09:19:42;;;;;;;6.00;5.33;;;33.60;26.20;;;;;;5053904;28;20453;-57
2023/06/13 09:22:09;;;;;;;5.60;4.70;;;33.70;26.70;;;;;;5053977;28;20448;-57
2023/06/13 09:24:37;;;;;;;5.33;4.93;;;33.90;26.50;;;;;;5053870;28;20532;-57
2023/06/13 09:27:06;;;;;;;5.73;4.90;;;34.00;26.00;;;;;;5053790;28;20465;-57
2023/06/13 09:29:34;;;;;;;5.87;5.40;;;34.20;25.90;;;;;;5053728;28;20452;-57
2023/06/13 09:32:01;;;;;;;6.60;5.43;;;34.30;24.30;;;;;;5053791;28;20449;-57
2023/06/13 09:34:28;;;;;;;5.90;4.90;;;34.50;24.10;;;;;;5053725;28;20445;-57
2023/06/13 09:36:57;;;;;;;6.47;4.87;;;34.60;25.10;;;;;;5053705;28;20555;-57
2023/06/13 09:39:24;;;;;;;5.73;4.63;;;34.80;25.00;;;;;;5053575;28;20444;-57
2023/06/13 09:41:54;;;;;;;7.83;5.33;;;34.90;24.50;;;;;;5053610;28;20445;-57
2023/06/13 09:44:24;;;;;;;5.50;5.00;;;35.10;24.30;;;;;;5053665;28;20461;-58
2023/06/13 09:46:51;;;;;;;11.03;5.27;;;35.30;24.10;;;;;;5053181;28;20504;-57
2023/06/13 09:49:18;;;;;;;5.70;5.20;;;35.50;23.60;;;;;;5053351;28;20488;-58
2023/06/13 09:51:45;;;;;;;6.03;5.40;;;35.70;23.50;;;;;;5053031;28;20962;-58
2023/06/13 09:54:12;;;;;;;4.10;3.80;;;35.90;23.60;;;;;;5053507;28;20441;-58
2023/06/13 09:56:41;;;;;;;4.90;4.50;;;36.20;23.80;;;;;;5052968;28;20850;-57
2023/06/13 09:59:08;;;;;;;4.70;4.30;;;36.50;23.70;;;;;;5053560;28;20233;-58
2023/06/13 10:01:36;;;;;;;6.03;5.43;;;36.70;22.50;;;;;;5053212;28;20203;-58
2023/06/13 10:04:05;;;;;;;5.00;4.53;;;37.00;21.80;;;;;;5053485;28;20210;-57
2023/06/13 10:06:32;;;;;;;5.40;4.90;;;37.20;21.60;;;;;;5053207;28;20249;-57
2023/06/13 10:08:59;;;;;;;6.93;5.38;;;37.50;21.80;;;;;;5053378;28;20237;-55
2023/06/13 10:11:30;;;;;;;5.93;5.20;;;37.80;21.80;;;;;;5053208;28;20236;-56
2023/06/13 10:14:06;;;;;;;5.07;4.68;;;38.10;20.80;;;;;;5053548;28;20248;-57
2023/06/13 10:16:40;;;;;;;5.15;4.72;;;38.20;19.20;;;;;;5053062;28;20218;-57
2023/06/13 10:19:09;;;;;;;4.78;4.22;;;38.40;20.40;;;;;;5053292;28;20647;-56
2023/06/13 10:21:37;;;;;;;7.60;5.10;;;38.70;21.10;;;;;;5053248;28;20553;-56
2023/06/13 10:24:05;;;;;;;4.82;4.43;;;39.10;21.20;;;;;;5053364;28;20206;-56
2023/06/13 10:26:36;;;;;;;6.00;4.70;;;39.50;20.40;;;;;;5053216;28;20237;-56
2023/06/13 10:29:23;;;;;;;7.47;4.85;;;39.90;19.40;;;;;;5053102;28;20192;-57
2023/06/13 10:32:02;;;;;;;4.65;4.35;;;40.30;19.30;;;;;;5053237;28;20191;-58
2023/06/13 10:35:02;;;;;;;5.32;4.82;;;40.50;19.00;;;;;;5053119;28;20197;-58
2023/06/13 10:38:02;;;;;;;4.90;4.50;;;40.80;19.20;;;;;;5056050;28;20226;-58
2023/06/13 10:40:59;;;;;;;4.68;4.28;;;41.20;18.50;;;;;;5033109;28;20290;-58
2023/06/13 10:43:34;;;;;;;4.53;4.10;;;41.50;18.30;;;;;;5049245;28;20207;-58
2023/06/13 10:46:06;;;;;;;5.25;4.63;;;42.10;17.90;;;;;;5052788;28;20237;-58
2023/06/13 10:48:36;;;;;;;5.88;4.72;;;42.40;17.30;;;;;;5053668;28;20203;-58
2023/06/13 10:51:03;;;;;;;4.93;3.83;;;42.80;16.80;;;;;;5052425;28;20240;-58
2023/06/13 10:53:31;;;;;;;4.38;4.05;;;43.30;16.90;;;;;;5052542;28;20673;-58
2023/06/13 10:56:02;;;;;;;4.82;4.43;;;43.80;16.70;;;;;;5052782;28;20241;-58
2023/06/13 10:58:30;;;;;;;4.57;4.18;;;44.20;15.80;;;;;;5052621;28;20234;-58
2023/06/13 11:01:03;;;;;;;4.70;4.30;;;44.60;15.40;;;;;;5053054;28;20207;-58
2023/06/13 11:03:31;;;;;;;4.30;3.90;;;44.90;13.60;;;;;;5056579;28;20187;-58
2023/06/13 11:06:06;;;;;;;5.05;4.40;;;45.20;14.20;;;;;;5056436;28;20206;-58
2023/06/13 11:08:33;;;;;;;4.93;4.13;;;45.50;14.40;;;;;;5056619;28;20186;-58
2023/06/13 11:11:02;;;;;;;4.60;3.90;;;45.70;14.50;;;;;;5056237;28;20206;-58
2023/06/13 11:13:34;;;;;;;4.22;3.60;;;46.10;14.30;;;;;;5056398;28;20187;-58
2023/06/13 11:16:19;;;;;;;4.45;4.15;;;46.40;13.80;;;;;;5056229;28;20222;-58
2023/06/13 11:18:47;;;;;;;6.70;3.90;;;46.70;13.80;;;;;;5057056;28;20254;-58
2023/06/13 11:21:16;;;;;;;4.25;3.88;;;46.90;13.10;;;;;;5056135;28;20653;-58
2023/06/13 11:23:51;;;;;;;7.82;4.38;;;47.10;13.10;;;;;;5056263;28;20210;-58
2023/06/13 11:26:22;;;;;;;6.75;4.00;;;47.30;12.30;;;;;;5056161;28;20262;-58
2023/06/13 11:28:51;;;;;;;5.15;3.92;;;47.50;11.90;;;;;;5056121;28;20183;-58
2023/06/13 11:31:18;;;;;;;4.43;4.13;;;47.80;12.30;;;;;;5056087;28;20301;-58
2023/06/13 11:33:47;;;;;;;4.20;3.90;;;47.80;11.50;;;;;;5056453;28;20211;-58
2023/06/13 11:36:16;;;;;;;6.13;4.07;;;47.90;11.60;;;;;;5055898;28;20225;-58
2023/06/13 11:38:47;;;;;;;5.60;4.38;;;47.90;11.70;;;;;;5055430;28;20250;-58
2023/06/13 11:41:15;;;;;;;5.00;4.55;;;48.20;12.40;;;;;;5056008;28;20183;-58
2023/06/13 11:43:42;;;;;;;6.63;3.92;;;48.50;12.20;;;;;;5055774;28;20578;-58
2023/06/13 11:46:13;;;;;;;4.65;3.88;;;48.70;12.20;;;;;;5055837;28;20229;-58
2023/06/13 11:48:39;;;;;;;4.85;4.30;;;48.70;10.40;;;;;;5056263;28;20211;-58
2023/06/13 11:51:11;;;;;;;4.63;3.55;;;48.60;10.40;;;;;;5055555;28;20202;-58
2023/06/13 11:53:50;;;;;;;5.15;4.00;;;48.40;11.30;;;;;;5055595;28;20217;-58
2023/06/13 11:56:18;;;;;;;4.22;3.92;;;48.50;12.30;;;;;;5055508;28;20233;-59
2023/06/13 11:58:45;;;;;;;4.18;3.85;;;48.80;12.30;;;;;;5055718;28;20325;-58
2023/06/13 12:01:15;;;;;;;7.00;3.85;;;48.90;12.00;;;;;;5057223;28;20202;-58
2023/06/13 12:03:43;;;;;;;4.80;4.50;;;49.10;12.30;;;;;;5056872;28;20244;-58
2023/06/13 12:06:10;;;;;;;4.47;3.95;;;48.80;12.00;;;;;;5056443;28;20225;-58
2023/06/13 12:08:39;;;;;;;4.30;3.92;;;48.30;12.10;;;;;;5055477;28;20203;-58
2023/06/13 12:11:09;;;;;;;4.15;3.75;;;48.30;12.60;;;;;;5055374;28;20580;-58
2023/06/13 12:13:36;;;;;;;4.13;3.72;;;48.60;11.60;;;;;;5054958;28;20684;-58
2023/06/13 12:16:04;;;;;;;6.32;4.20;;;48.90;11.20;;;;;;5055645;28;20276;-58
2023/06/13 12:18:30;;;;;;;3.97;3.63;;;49.40;10.60;;;;;;5054912;28;20229;-58
2023/06/13 12:20:59;;;;;;;4.30;3.80;;;49.90;11.10;;;;;;5055126;28;20294;-58
2023/06/13 12:23:27;;;;;;;4.20;3.67;;;50.20;10.60;;;;;;5054769;28;20207;-58
2023/06/13 12:25:55;;;;;;;4.85;4.28;;;50.40;10.80;;;;;;5054945;28;20210;-58
2023/06/13 12:28:23;;;;;;;4.35;4.00;;;50.70;10.80;;;;;;5054919;28;20238;-58
2023/06/13 12:30:51;;;;;;;4.13;3.70;;;50.90;10.30;;;;;;5054728;28;20625;-58
2023/06/13 12:33:19;;;;;;;4.75;3.88;;;51.20;10.70;;;;;;5054905;28;20596;-58
2023/06/13 12:35:51;;;;;;;3.83;3.55;;;51.40;9.10;;;;;;5054493;28;20611;-58
2023/06/13 12:38:19;;;;;;;5.95;4.00;;;51.50;10.30;;;;;;5054628;28;20222;-58
2023/06/13 12:40:51;;;;;;;3.70;3.50;;;51.70;10.30;;;;;;5054783;28;20209;-57
2023/06/13 12:43:18;;;;;;;5.47;4.07;;;51.90;10.20;;;;;;5054410;28;20568;-57
2023/06/13 12:45:46;;;;;;;3.88;3.58;;;52.20;10.00;;;;;;5054620;28;20202;-58
2023/06/13 12:48:17;;;;;;;4.68;4.38;;;52.50;10.20;;;;;;5054586;28;20195;-57
2023/06/13 12:50:46;;;;;;;4.00;3.70;;;52.90;10.00;;;;;;5054431;28;20273;-58
2023/06/13 12:53:13;;;;;;;3.80;3.50;;;53.00;9.20;;;;;;5054391;28;20206;-58